createdAt,value
2017-04-01T09:00:03.549Z,15.91
2017-04-01T09:15:03.168Z,16.32
2017-04-01T09:30:07.744Z,16.89
2017-04-01T09:45:02.237Z,20.51
2017-04-01T10:00:02.815Z,22.62
2017-04-01T10:15:08.367Z,24.36
2017-04-01T10:30:07.331Z,24.74
2017-04-01T10:45:02.861Z,24.86
2017-04-01T11:00:02.345Z,24.32
2017-04-01T11:15:02.959Z,23.72
2017-04-01T11:30:02.786Z,23.31
2017-04-01T11:45:02.632Z,23.6
2017-04-01T12:00:02.217Z,23.64
2017-04-01T12:15:02.950Z,23.68
2017-04-01T12:30:03.028Z,22.94
2017-04-01T12:45:03.350Z,22.06
2017-04-01T13:00:02.903Z,21.78
2017-04-01T13:15:02.179Z,21.59
2017-04-01T13:30:03.399Z,21.15
2017-04-01T13:45:03.113Z,21.53
2017-04-01T14:00:02.860Z,21.84
2017-04-01T14:30:02.695Z,22.01
2017-04-01T14:45:02.802Z,21.57
2017-04-01T15:00:02.407Z,21.15
2017-04-01T15:15:02.390Z,21.14
2017-04-01T15:30:03.364Z,20.87
2017-04-01T15:45:03.202Z,20.37
2017-04-01T16:00:03.250Z,20.15
2017-04-01T16:15:02.914Z,19.73
2017-04-01T16:30:02.907Z,19.32
2017-04-01T16:45:02.933Z,18.27
2017-04-01T17:00:02.659Z,17.51
2017-04-01T17:15:02.259Z,17.05
2017-04-01T17:30:02.888Z,16.22
2017-04-01T17:45:02.468Z,15.54
2017-04-01T18:00:03.042Z,15.52
2017-04-01T18:15:03.170Z,14.91
2017-04-01T18:30:03.087Z,14.47
2017-04-01T18:45:03.005Z,14.21
2017-04-01T19:00:02.908Z,13.86
2017-04-01T19:30:02.561Z,13.39
2017-04-01T19:45:03.225Z,13.36
2017-04-01T20:00:02.806Z,13.3
2017-04-01T20:15:02.668Z,13.23
2017-04-01T20:30:02.542Z,13.26
2017-04-01T20:45:02.314Z,13.19
2017-04-01T21:00:02.699Z,13
2017-04-01T21:15:02.875Z,12.9
2017-04-01T21:30:03.207Z,12.85
2017-04-01T21:45:02.699Z,12.62
2017-04-01T22:00:02.231Z,12.55
2017-04-01T22:15:02.324Z,12.3
2017-04-01T22:30:03.055Z,12
2017-04-01T22:45:02.754Z,11.82
2017-04-01T23:00:02.520Z,11.67
2017-04-01T23:15:03.001Z,11.33
2017-04-01T23:30:02.713Z,11.19
2017-04-01T23:45:02.802Z,11.11
